• Join FlightAware (Why Join?)
  • Login
  • US Flag 
08:07PM EST


 

Airport Tracker/Info


-or-


 

Live Flight TrackerFlight Track Log ✈ CES2228 ✈ 07-Jul-2013 ✈ ZUJZ / JZH - ZSPD / PVG

Flight Track Log - Related Links

Times and Time Zones

All times are in EDT time to prevent confusion due to time zone crossing. See the CES2228 flight status page for this flight to view local times or setup timezone preferences in your user account.

Time Position Orientation Groundspeed Altitude Reporting Facility
EDT Latitude Longitude Course Direction KTS MPH feet Rate Location/Type
12:16AM 32.8086 105.3763 91° East  Level Estimated
12:17AM 32.8040 105.5065 92° East  Level Estimated
12:18AM 32.7991 105.6366 92° East  Level Estimated
12:19AM 32.7942 105.7668 93° East  Level Estimated
12:20AM 32.7892 105.8969 93° East  Level Estimated
12:21AM 32.7840 106.0270 93° East  Level Estimated
12:22AM 32.7786 106.1571 93° East  Level Estimated
12:23AM 32.7731 106.2872 93° East  Level Estimated
12:24AM 32.7675 106.4173 93° East  Level Estimated
12:25AM 32.7618 106.5473 93° East  Level Estimated
12:26AM 32.7559 106.6774 93° East  Level Estimated
12:27AM 32.7499 106.8074 93° East  Level Estimated
12:28AM 32.7438 106.9374 93° East  Level Estimated
12:29AM 32.7375 107.0674 93° East  Level Estimated
12:30AM 32.7311 107.1973 93° East  Level Estimated
12:31AM 32.7245 107.3272 93° East  Level Estimated
12:32AM 32.7178 107.4572 93° East  Level Estimated
12:33AM 32.7110 107.5871 94° East  Level Estimated
12:34AM 32.7041 107.7169 94° East  Level Estimated
12:35AM 32.6970 107.8468 94° East  Level Estimated
12:36AM 32.6898 107.9766 94° East  Level Estimated
12:37AM 32.6824 108.1065 94° East  Level Estimated
12:38AM 32.6749 108.2363 94° East  Level Estimated
12:39AM 32.6673 108.3661 94° East  Level Estimated
12:40AM 32.6596 108.4958 94° East  Level Estimated
12:41AM 32.6517 108.6255 94° East  Level Estimated
12:42AM 32.6437 108.7552 94° East  Level Estimated
12:43AM 32.6355 108.8849 94° East  Level Estimated
12:44AM 32.6273 109.0146 94° East  Level Estimated
12:45AM 32.6188 109.1442 94° East  Level Estimated
12:46AM 32.6103 109.2738 94° East  Level Estimated
12:47AM 32.6016 109.4034 95° East  Level Estimated
12:48AM 32.5928 109.5330 95° East  Level Estimated
12:49AM 32.5838 109.6625 95° East  Level Estimated
12:50AM 32.5747 109.7920 95° East  Level Estimated
12:51AM 32.5655 109.9215 95° East  Level Estimated
12:52AM 32.5562 110.0510 95° East  Level Estimated
12:53AM 32.5467 110.1804 95° East  Level Estimated
12:54AM 32.5371 110.3098 95° East  Level Estimated
12:55AM 32.5273 110.4392 95° East  Level Estimated
12:56AM 32.5175 110.5685 95° East  Level Estimated
12:57AM 32.5075 110.6979 95° East  Level Estimated
12:58AM 32.4973 110.8271 95° East  Level Estimated
12:59AM 32.4870 110.9564 95° East  Level Estimated
01:00AM 32.4766 111.0856 95° East  Level Estimated
01:01AM 32.4661 111.2148 95° East  Level Estimated
01:02AM 32.4554 111.3440 96° East  Level Estimated
01:03AM 32.4446 111.4732 96° East  Level Estimated
01:04AM 32.4337 111.6023 96° East  Level Estimated
01:05AM 32.4226 111.7313 96° East  Level Estimated
01:06AM 32.4114 111.8604 96° East  Level Estimated
01:07AM 32.4001 111.9894 96° East  Level Estimated
01:08AM 32.3886 112.1184 96° East  Level Estimated
01:09AM 32.3770 112.2473 96° East  Level Estimated
01:10AM 32.3653 112.3762 96° East  Level Estimated
01:11AM 32.3535 112.5051 96° East  Level Estimated
01:12AM 32.3415 112.6340 96° East  Level Estimated
01:13AM 32.3293 112.7628 96° East  Level Estimated
01:14AM 32.3171 112.8915 96° East  Level Estimated
01:15AM 32.3047 113.0203 96° East  Level Estimated
01:16AM 32.2922 113.1490 97° East  Level Estimated
01:17AM 32.2796 113.2777 97° East  Level Estimated
01:18AM 32.2668 113.4063 97° East  Level Estimated
01:19AM 32.2539 113.5349 97° East  Level Estimated
01:20AM 32.2409 113.6635 97° East  Level Estimated
01:21AM 32.2277 113.7920 97° East  Level Estimated
01:22AM 32.2144 113.9205 97° East  Level Estimated
01:23AM 32.2010 114.0489 97° East  Level Estimated
01:24AM 32.1875 114.1773 97° East  Level Estimated
01:25AM 32.1738 114.3057 97° East  Level Estimated
01:26AM 32.1600 114.4340 97° East  Level Estimated
01:27AM 32.1460 114.5623 97° East  Level Estimated
01:28AM 32.1320 114.6906 97° East  Level Estimated
01:29AM 32.1177 114.8188 97° East  Level Estimated
01:30AM 32.1034 114.9470 97° East  Level Estimated
01:31AM 32.0890 115.0751 98° East  Level Estimated
01:32AM 32.0744 115.2032 98° East  Level Estimated
01:33AM 32.0597 115.3313 98° East  Level Estimated
01:34AM 32.0448 115.4593 98° East  Level Estimated
01:35AM 32.0299 115.5872 98° East  Level Estimated
01:36AM 32.0148 115.7152 98° East  Level Estimated
01:37AM 31.9995 115.8431 98° East  Level Estimated
01:38AM 31.9842 115.9709 98° East  Level Estimated
01:39AM 31.9687 116.0987 98° East  Level Estimated
01:40AM 31.9531 116.2265 98° East  Level Estimated
01:41AM 31.9373 116.3542 98° East  Level Estimated
01:42AM 31.9215 116.4818 98° East  Level Estimated
01:43AM 31.9055 116.6095 98° East  Level Estimated
01:44AM 31.8894 116.7371 98° East  Level Estimated
01:45AM 31.8731 116.8646 98° East  Level Estimated
01:46AM 31.8567 116.9921 99° East  Level Estimated
01:47AM 31.8402 117.1195 99° East  Level Estimated
01:48AM 31.8236 117.2469 99° East  Level Estimated
01:49AM 31.8068 117.3743 99° East  Level Estimated
01:50AM 31.7900 117.5016 99° East  Level Estimated
01:51AM 31.7729 117.6289 99° East  Level Estimated
01:52AM 31.7558 117.7561 99° East  Level Estimated
01:53AM 31.7386 117.8832 99° East  Level Estimated
01:54AM 31.7212 118.0104 99° East  Level Estimated
01:55AM 31.7036 118.1374 99° East  Level Estimated
01:56AM 31.6860 118.2645 99° East  Level Estimated
01:57AM 31.6682 118.3914 99° East  Level Estimated
01:58AM 31.6503 118.5183 99° East  Level Estimated
01:59AM 31.6323 118.6452 99° East  Level Estimated
02:00AM 31.6142 118.7721 100° East  Level Estimated
02:01AM 31.5959 118.8988 100° East  Level Estimated
02:02AM 31.5775 119.0256 100° East  Level Estimated
02:02AM 32.1910 119.0430 100° East 482 555 29,100  Level FlightAware
02:03AM 31.5590 119.1523 100° East  Level Estimated
02:03AM 32.1300 119.1300 130° Southeast 483 556 29,100  Level FlightAware
02:04AM 32.0740 119.2110 129° Southeast 486 559 29,100  Level FlightAware
02:04AM 32.0170 119.2950 129° Southeast 482 555 29,100  Level FlightAware
02:05AM 31.9730 119.3950 117° Southeast 484 557 29,100 -135 Level FlightAware
02:06AM 31.9290 119.5060 115° Southeast 486 559 28,900 -1,059 Descending FlightAware
02:06AM 31.8910 119.5980 116° Southeast 474 545 27,600 -2,000 Descending FlightAware
02:07AM 31.8520 119.6950 115° Southeast 459 528 26,200 -2,118 Descending FlightAware
02:08AM 31.8120 119.7910 116° Southeast 445 512 24,600 -2,214 Descending FlightAware
02:09AM 31.7750 119.8820 116° Southeast 450 518 23,100 -2,175 Descending FlightAware
02:09AM 31.7390 119.9700 116° Southeast 449 517 21,700 -1,694 Descending FlightAware
02:10AM 31.7000 120.0640 116° Southeast 432 497 20,700 -750 Descending FlightAware
02:11AM 31.6670 120.1420 116° Southeast 437 503 20,700  Level FlightAware
02:11AM 31.6290 120.2350 116° Southeast 438 504 20,700 -424 Level FlightAware
02:12AM 31.5930 120.3200 116° Southeast 437 503 20,100 -750 Descending FlightAware
02:13AM 31.5660 120.4070 110° East 432 497 19,700 -300 Descending FlightAware
02:13AM 31.5380 120.4990 110° East 435 501 19,700  Level FlightAware
02:14AM 31.5080 120.5990 109° East 431 496 19,700 -429 Level FlightAware
02:14AM 31.4910 120.6540 110° East 430 495 19,200 -1,811 Descending FlightAware
02:16AM 31.4390 120.8260 109° East 407 468 16,500 -2,095 Descending FlightAware
02:17AM 31.4110 120.9180 110° East 397 457 14,800 -2,427 Descending FlightAware
02:17AM 31.3830 121.0070 110° East 396 456 12,900 -2,093 Descending FlightAware
02:18AM 31.3580 121.0890 110° East 371 427 11,800 -1,059 Descending FlightAware
02:19AM 31.3350 121.1670 109° East 310 357 11,400 -1,084 Descending FlightAware
02:19AM 31.3160 121.2290 110° East 305 351 10,300 -1,129 Descending FlightAware
02:20AM 31.2950 121.2970 110° East 273 314 9,800 -764 Descending FlightAware
02:20AM 31.2920 121.3090 106° East 276 318 9,600 -1,800 Descending FlightAware
02:21AM 31.2870 121.3520 98° East 299 344 8,600 -1,000 Descending FlightAware
02:21AM 31.2960 121.4040 79° East 296 341 8,400 -1,964 Descending FlightAware
02:22AM 31.3030 121.4390 77° East 297 342 6,800 -3,628 Descending FlightAware
02:22AM 31.3110 121.4890 79° East 297 342 5,800 -1,964 Descending FlightAware
02:23AM 31.3170 121.5280 80° East 282 325 5,000 -1,350 Descending FlightAware
02:23AM 31.3200 121.5450 78° East 277 319 4,900 -686 Descending FlightAware
02:23AM 31.3330 121.5750 63° Northeast 270 311 4,600 -857 Descending FlightAware
02:23AM 31.3420 121.5900 55° Northeast 255 293 4,400 -600 Descending FlightAware
02:24AM 31.3600 121.6200 55° Northeast 235 270 4,200 -218 Descending FlightAware
02:24AM 31.3760 121.6480 56° Northeast 216 249 4,200  Level FlightAware
02:25AM 31.3680 121.6790 107° East 201 231 4,200 -133 Level FlightAware
02:25AM 31.3580 121.6940 128° Southeast 205 236 4,100 -300 Descending FlightAware
02:26AM 31.3430 121.7120 134° Southeast 160 184 4,000 -600 Descending FlightAware
02:26AM 31.3320 121.7160 163° South 155 178 3,700 -1,050 Descending FlightAware
02:26AM 31.3150 121.7230 161° South 158 182 3,300 -923 Descending FlightAware
02:27AM 31.2850 121.7340 163° South 156 180 2,700 -800 Descending FlightAware
02:27AM 31.2710 121.7390 163° South 154 177 2,500 -667 Descending FlightAware
02:28AM 31.2550 121.7450 162° South 135 155 2,200 -655 Descending FlightAware
02:28AM 31.2390 121.7510 162° South 134 154 1,900 -316 Descending FlightAware
02:29AM 31.2260 121.7570 158° South 134 154 1,900 -695 Level FlightAware
02:30AM 31.1820 121.7730 163° South 120 138 800 -816 Descending FlightAware
02:30AM 31.1610 121.7810 162° South 124 143 500 -295 Descending FlightAware
02:31AM 31.1500 121.7860 159° South 124 143 500  Level FlightAware
02:33AM 31.1428 121.7924 143° Southeast  Level Estimated
02:34AM 31.1428 121.7924 221° Southwest  Level Estimated
02:35AM 31.1428 121.7924 221° Southwest  Level Estimated
02:36AM 31.1428 121.7924 221° Southwest  Level Estimated
02:37AM 31.1428 121.7924 221° Southwest  Level Estimated
02:38AM 31.1428 121.7924 221° Southwest  Level Estimated
02:39AM 31.1428 121.7924 221° Southwest  Level Estimated